Time;durP1;ratioP1;P1;durP2;ratioP2;P2;SDS_P1;SDS_P2;PMS_P1;PMS_P2;Temp;Humidity;BMP_temperature;BMP_pressure;BME280_temperature;BME280_humidity;BME280_pressure;Samples;Min_cycle;Max_cycle;Signal;HPM_P1;HPM_P2
2023/10/31 00:00:05;;;;;;;18.42;5.45;;;;;;;-146.27;91.02;83238.03;5031442;28;20064;-73
2023/10/31 00:02:31;;;;;;;18.88;5.85;;;;;;;-146.27;90.85;83229.97;5028609;28;20485;-73
2023/10/31 00:04:56;;;;;;;16.70;5.57;;;;;;;-146.27;90.85;83264.13;5017197;28;20086;-73
2023/10/31 00:07:22;;;;;;;11.52;5.25;;;;;;;-146.27;91.09;83215.91;5023093;28;20033;-73
2023/10/31 00:09:47;;;;;;;16.45;5.28;;;;;;;-146.27;90.78;83171.72;5028384;28;20021;-73
2023/10/31 00:12:12;;;;;;;16.48;5.53;;;;;;;-146.27;90.78;83232.00;5028451;28;20025;-74
2023/10/31 00:14:39;;;;;;;15.45;5.65;;;;;;;-146.27;90.75;83155.63;5036225;28;20029;-74
2023/10/31 00:17:04;;;;;;;10.05;4.45;;;;;;;-146.27;90.77;83209.88;5025170;28;20123;-74
2023/10/31 00:19:29;;;;;;;11.13;4.97;;;;;;;-146.27;90.69;83191.81;5034197;28;20171;-72
2023/10/31 00:21:55;;;;;;;11.48;4.57;;;;;;;-146.27;90.96;83238.03;5022799;28;20047;-74
2023/10/31 00:24:20;;;;;;;11.90;5.00;;;;;;;-146.27;90.85;83199.84;5034782;28;20040;-74
2023/10/31 00:26:45;;;;;;;9.55;3.83;;;;;;;-146.27;90.83;83191.81;5022409;28;20040;-74
2023/10/31 00:29:11;;;;;;;17.85;4.65;;;;;;;-146.27;91.03;83227.97;5025742;28;20033;-74
2023/10/31 00:31:40;;;;;;;12.48;3.55;;;;;;;-146.27;91.79;83215.91;5027595;28;20041;-74
2023/10/31 00:34:06;;;;;;;11.02;3.88;;;;;;;-146.27;91.18;83268.16;5027032;28;20430;-74
2023/10/31 00:36:31;;;;;;;9.63;3.30;;;;;;;-146.27;91.04;83187.78;5019148;28;20053;-74
2023/10/31 00:38:56;;;;;;;16.42;5.43;;;;;;;-146.27;91.05;83209.88;5033765;28;20021;-74
2023/10/31 00:41:22;;;;;;;9.43;3.78;;;;;;;-146.27;91.12;83193.81;5030053;28;20473;-74
2023/10/31 00:43:47;;;;;;;10.70;4.03;;;;;;;-146.27;91.17;83264.13;5024762;28;20040;-75
2023/10/31 00:46:12;;;;;;;8.88;3.90;;;;;;;-146.27;91.43;83215.91;5030939;28;20021;-74
2023/10/31 00:48:38;;;;;;;12.60;3.85;;;;;;;-146.27;91.37;83252.09;5031714;28;20037;-74
2023/10/31 00:51:04;;;;;;;10.75;4.22;;;;;;;-146.27;90.92;83217.94;5030839;28;20397;-74
2023/10/31 00:53:30;;;;;;;15.07;4.15;;;;;;;-146.27;91.03;83236.00;5029547;28;20109;-74
2023/10/31 00:55:55;;;;;;;9.45;3.72;;;;;;;-146.27;90.91;83207.88;5029245;28;20033;-74
2023/10/31 00:58:20;;;;;;;8.68;3.85;;;;;;;-146.27;90.94;83203.88;5032957;28;20032;-74
2023/10/31 01:00:45;;;;;;;12.27;3.90;;;;;;;-146.27;90.75;83215.91;5028775;28;20030;-74
2023/10/31 01:03:11;;;;;;;14.80;4.43;;;;;;;-146.27;90.93;83217.94;5032570;28;20025;-74
2023/10/31 01:05:36;;;;;;;8.15;3.80;;;;;;;-146.27;90.85;83221.94;5032388;28;20041;-74
2023/10/31 01:08:02;;;;;;;10.25;3.88;;;;;;;-146.27;90.93;83219.94;5035398;28;20025;-74
2023/10/31 01:10:27;;;;;;;10.25;3.83;;;;;;;-146.27;91.04;83191.81;5030830;28;20029;-74
2023/10/31 01:12:52;;;;;;;14.02;4.28;;;;;;;-146.27;91.57;83240.03;5032947;28;20029;-74
2023/10/31 01:15:18;;;;;;;10.45;3.65;;;;;;;-146.27;91.12;83227.97;5032878;28;20363;-74
2023/10/31 01:17:43;;;;;;;9.23;3.67;;;;;;;-146.27;90.91;83175.72;5034992;28;20882;-74
2023/10/31 01:20:10;;;;;;;10.93;3.00;;;;;;;-146.27;91.12;83183.78;5032989;28;20117;-74
2023/10/31 01:22:35;;;;;;;8.25;2.78;;;;;;;-146.27;90.97;83207.88;5034476;28;20103;-74
2023/10/31 01:25:01;;;;;;;7.72;2.45;;;;;;;-146.27;90.85;83227.97;5031031;28;20029;-74
2023/10/31 01:27:26;;;;;;;8.10;2.17;;;;;;;-146.27;90.93;83207.88;5032667;28;20108;-74
2023/10/31 01:29:51;;;;;;;7.60;2.08;;;;;;;-146.27;90.88;83227.97;5027793;28;20357;-73
2023/10/31 01:32:18;;;;;;;9.25;1.80;;;;;;;-146.27;91.15;83232.00;5032936;28;20548;-73
2023/10/31 01:34:43;;;;;;;6.18;1.40;;;;;;;-146.27;90.69;83199.84;5035703;28;20032;-73
2023/10/31 01:37:08;;;;;;;6.60;1.35;;;;;;;-146.27;91.03;83187.78;5036383;28;20385;-73
2023/10/31 01:39:36;;;;;;;5.88;1.55;;;;;;;-146.27;90.72;83238.03;5029328;28;20535;-73
2023/10/31 01:42:01;;;;;;;4.78;1.65;;;;;;;-146.27;90.86;83219.94;5037667;28;20082;-73
2023/10/31 01:44:27;;;;;;;2.88;0.70;;;;;;;-146.27;90.65;83215.91;5023566;28;20119;-73
2023/10/31 01:46:52;;;;;;;6.75;1.20;;;;;;;-146.27;90.27;83225.97;5019177;28;20021;-73
2023/10/31 01:49:17;;;;;;;3.03;0.90;;;;;;;-146.27;90.70;83215.91;5032570;28;20480;-72
2023/10/31 01:51:45;;;;;;;1.70;0.80;;;;;;;-146.27;90.44;83264.13;5033415;28;21064;-73
2023/10/31 01:54:10;;;;;;;7.63;1.15;;;;;;;-146.27;90.45;83252.09;5031721;28;20028;-74
2023/10/31 01:56:36;;;;;;;2.80;0.82;;;;;;;-146.27;90.32;83242.03;5030113;28;20032;-72
2023/10/31 01:59:02;;;;;;;6.00;1.50;;;;;;;-146.27;90.45;83240.03;5028684;28;20537;-73
2023/10/31 02:01:27;;;;;;;2.78;0.73;;;;;;;-146.27;90.36;83260.13;5017732;28;20129;-73
2023/10/31 02:03:53;;;;;;;2.17;0.73;;;;;;;-146.27;90.39;83238.03;5028548;28;20025;-72
2023/10/31 02:06:18;;;;;;;2.70;1.20;;;;;;;-146.27;90.62;83246.06;5026136;28;20061;-73
2023/10/31 02:08:44;;;;;;;6.75;0.88;;;;;;;-146.27;90.58;83258.13;5020005;28;20048;-73
2023/10/31 02:11:10;;;;;;;4.00;0.55;;;;;;;-146.27;90.28;83274.19;5036324;28;20055;-73
2023/10/31 02:13:36;;;;;;;6.25;0.77;;;;;;;-146.27;90.36;83246.06;5032541;28;20035;-73
2023/10/31 02:16:02;;;;;;;1.75;0.40;;;;;;;-146.27;90.40;83250.06;5028029;28;20055;-73
2023/10/31 02:18:27;;;;;;;2.10;0.60;;;;;;;-146.27;90.38;83195.81;5024682;28;20489;-73
2023/10/31 02:20:53;;;;;;;3.90;0.70;;;;;;;-146.27;90.56;83272.19;5023250;28;20525;-73
2023/10/31 02:23:18;;;;;;;0.88;0.40;;;;;;;-146.27;90.52;83219.94;5046002;28;20021;-73
2023/10/31 02:25:43;;;;;;;5.05;0.52;;;;;;;-146.27;90.36;83260.13;5025077;28;20397;-75
2023/10/31 02:28:09;;;;;;;2.15;0.35;;;;;;;-146.27;91.39;83376.66;5033748;28;20024;-73
2023/10/31 02:30:35;;;;;;;3.03;0.60;;;;;;;-146.27;91.20;83296.28;5031473;28;20509;-73
2023/10/31 02:33:03;;;;;;;2.92;0.57;;;;;;;-146.27;91.11;83312.34;5023368;28;20025;-72
2023/10/31 02:35:28;;;;;;;3.40;0.60;;;;;;;-146.27;91.86;83300.31;5023250;28;20026;-73
2023/10/31 02:37:53;;;;;;;5.97;0.80;;;;;;;-146.27;91.18;83256.09;5017089;28;20918;-73
2023/10/31 02:40:19;;;;;;;7.20;0.93;;;;;;;-146.27;91.01;83225.97;5033273;28;20033;-72
2023/10/31 02:42:44;;;;;;;4.35;0.90;;;;;;;-146.27;90.86;83236.00;5035398;28;20021;-73
2023/10/31 02:45:10;;;;;;;2.67;0.57;;;;;;;-146.27;91.21;83284.22;5024441;28;20115;-75
2023/10/31 02:47:36;;;;;;;5.55;0.95;;;;;;;-146.27;91.40;83260.13;5032349;28;20453;-71
2023/10/31 02:50:01;;;;;;;4.10;1.15;;;;;;;-146.27;91.29;83256.09;5033272;28;20021;-75
2023/10/31 02:52:27;;;;;;;4.90;0.68;;;;;;;-146.27;91.15;83322.41;5027019;28;20108;-75
2023/10/31 02:54:52;;;;;;;4.20;0.70;;;;;;;-146.27;90.92;83266.16;5025486;28;20025;-76
2023/10/31 02:57:17;;;;;;;5.57;0.63;;;;;;;-146.27;90.69;83290.25;5017889;28;20147;-75
2023/10/31 02:59:43;;;;;;;5.72;1.10;;;;;;;-146.27;90.99;83284.22;5009372;28;20104;-75
2023/10/31 03:02:08;;;;;;;8.70;0.88;;;;;;;-146.27;90.69;83288.25;5031130;28;20028;-75
2023/10/31 03:04:34;;;;;;;2.70;0.57;;;;;;;-146.27;90.43;83278.19;5025741;28;20116;-75
2023/10/31 03:06:59;;;;;;;1.50;0.38;;;;;;;-146.27;90.37;83240.03;5019427;28;20034;-75
2023/10/31 03:09:24;;;;;;;3.13;0.52;;;;;;;-146.27;90.45;83270.16;5014898;28;20475;-75
2023/10/31 03:11:50;;;;;;;3.63;0.57;;;;;;;-146.27;90.19;83284.22;5011016;28;20030;-75
2023/10/31 03:14:15;;;;;;;3.47;0.50;;;;;;;-146.27;90.46;83292.28;5021341;28;20074;-75
2023/10/31 03:16:41;;;;;;;5.47;0.95;;;;;;;-146.27;90.40;83272.19;5024266;28;20457;-75
2023/10/31 03:19:07;;;;;;;2.40;0.52;;;;;;;-146.27;90.17;83300.31;5031792;28;20025;-75
2023/10/31 03:21:32;;;;;;;3.15;0.70;;;;;;;-146.27;90.31;83282.22;5032391;28;20065;-75
2023/10/31 03:23:57;;;;;;;8.57;0.50;;;;;;;-146.27;90.28;83276.19;5028620;28;20057;-75
2023/10/31 03:26:23;;;;;;;4.13;0.70;;;;;;;-146.27;90.18;83300.31;5029138;28;20065;-75
2023/10/31 03:28:49;;;;;;;2.20;0.30;;;;;;;-146.27;90.16;83284.22;5033652;28;20026;-75
2023/10/31 03:31:14;;;;;;;2.67;0.40;;;;;;;-146.27;90.39;83338.47;5040767;28;20025;-75
2023/10/31 03:33:40;;;;;;;4.82;0.73;;;;;;;-146.27;90.45;83330.44;5038508;28;20112;-75
2023/10/31 03:36:06;;;;;;;11.10;0.70;;;;;;;-146.27;90.23;83280.22;5037226;28;20099;-74
2023/10/31 03:38:32;;;;;;;7.53;2.63;;;;;;;-146.27;90.28;83308.34;5025421;28;20593;-74
2023/10/31 03:40:57;;;;;;;3.15;0.75;;;;;;;-146.27;90.47;83292.28;5038581;28;20091;-74
2023/10/31 03:43:23;;;;;;;4.45;0.60;;;;;;;-146.27;90.22;83308.34;5039519;28;20033;-75
2023/10/31 03:45:48;;;;;;;3.90;0.63;;;;;;;-146.27;90.17;83302.31;5034281;28;20117;-75
2023/10/31 03:48:15;;;;;;;0.80;0.63;;;;;;;-146.27;90.22;83346.53;5046268;28;20021;-75
2023/10/31 03:50:40;;;;;;;1.10;0.40;;;;;;;-146.27;90.42;83342.50;5038257;28;20078;-74
2023/10/31 03:53:06;;;;;;;5.25;0.70;;;;;;;-146.27;90.28;83332.44;5037130;28;20061;-74
2023/10/31 03:55:31;;;;;;;1.67;0.50;;;;;;;-146.27;90.69;83340.50;5045539;28;20497;-74
2023/10/31 03:57:56;;;;;;;2.63;0.60;;;;;;;-146.27;90.44;83346.53;5041870;28;20029;-75
2023/10/31 04:00:23;;;;;;;6.18;0.93;;;;;;;-146.27;90.48;83368.63;5026253;28;20588;-75
2023/10/31 04:02:48;;;;;;;2.45;0.65;;;;;;;-146.27;90.38;83318.38;5032345;28;20501;-74
2023/10/31 04:05:13;;;;;;;5.05;0.77;;;;;;;-146.27;90.44;83350.53;5021937;28;20056;-75
2023/10/31 04:07:39;;;;;;;1.25;0.52;;;;;;;-146.27;90.11;83308.34;5030823;28;20025;-75
2023/10/31 04:10:05;;;;;;;4.15;1.20;;;;;;;-146.27;89.96;83300.31;5022313;28;20101;-75
2023/10/31 04:12:31;;;;;;;8.00;1.35;;;;;;;-146.27;90.20;83332.44;5033907;28;20029;-75
2023/10/31 04:14:56;;;;;;;2.75;0.98;;;;;;;-146.27;90.01;83326.44;5039974;28;20040;-75
2023/10/31 04:17:22;;;;;;;2.20;1.10;;;;;;;-146.27;90.33;83336.47;5033036;28;20095;-75
2023/10/31 04:19:47;;;;;;;6.22;1.00;;;;;;;-146.27;90.04;83316.38;5027902;28;20393;-75
2023/10/31 04:22:13;;;;;;;5.53;1.20;;;;;;;-146.27;89.98;83336.47;5032751;28;20025;-75
2023/10/31 04:24:38;;;;;;;2.67;1.25;;;;;;;-146.27;90.32;83340.50;5038536;28;20021;-75
2023/10/31 04:27:03;;;;;;;5.00;1.90;;;;;;;-146.27;90.05;83322.41;5033779;28;20033;-76
2023/10/31 04:29:29;;;;;;;9.18;1.50;;;;;;;-146.27;89.91;83336.47;5032934;28;20529;-76
2023/10/31 04:31:54;;;;;;;3.15;1.60;;;;;;;-146.27;90.28;83344.50;5020992;28;20025;-75
2023/10/31 04:34:19;;;;;;;3.83;1.52;;;;;;;-146.27;90.11;83330.44;5031843;28;20032;-75
2023/10/31 04:36:45;;;;;;;4.13;2.10;;;;;;;-146.27;90.39;83356.56;5030726;28;20048;-75
2023/10/31 04:39:10;;;;;;;6.45;3.03;;;;;;;-146.27;90.55;83362.59;5030519;28;20401;-75
2023/10/31 04:41:36;;;;;;;7.18;3.15;;;;;;;-146.27;90.70;83342.50;5032310;28;20033;-75
2023/10/31 04:44:01;;;;;;;10.85;3.92;;;;;;;-146.27;90.54;83332.44;5029278;28;20022;-74
2023/10/31 04:46:27;;;;;;;8.05;4.35;;;;;;;-146.27;90.86;83348.53;5021098;28;20036;-75
2023/10/31 04:48:53;;;;;;;15.40;5.43;;;;;;;-146.27;90.49;83340.50;5029787;28;20167;-75
2023/10/31 04:51:18;;;;;;;9.30;5.15;;;;;;;-146.27;90.48;83320.41;5023850;28;20021;-76
2023/10/31 04:53:44;;;;;;;9.90;5.40;;;;;;;-146.27;90.62;83378.66;5028329;28;20033;-75
2023/10/31 04:56:16;;;;;;;11.32;5.25;;;;;;;-146.27;90.33;83314.38;5036662;28;20022;-75
2023/10/31 04:58:42;;;;;;;5.93;4.30;;;;;;;-146.27;90.89;83372.63;5027122;28;20493;-75
2023/10/31 05:01:16;;;;;;;10.35;4.53;;;;;;;-146.27;90.82;83340.50;5025630;28;20033;-74
2023/10/31 05:03:41;;;;;;;7.57;3.70;;;;;;;-146.27;91.10;83392.72;5029032;28;20025;-73
2023/10/31 05:06:07;;;;;;;8.55;3.50;;;;;;;-146.27;90.77;83344.50;5031585;28;20392;-73
2023/10/31 05:08:32;;;;;;;5.65;3.05;;;;;;;-146.27;90.32;83336.47;5031235;28;20029;-73
2023/10/31 05:10:58;;;;;;;9.70;2.88;;;;;;;-146.27;90.56;83308.34;5025066;28;20029;-72
2023/10/31 05:13:24;;;;;;;8.55;3.08;;;;;;;-146.27;90.43;83336.47;5029861;28;20574;-74
2023/10/31 05:15:50;;;;;;;16.00;2.95;;;;;;;-146.27;90.18;83302.31;5034037;28;20052;-72
2023/10/31 05:18:15;;;;;;;4.75;2.42;;;;;;;-146.27;90.18;83342.50;5033051;28;20029;-74
2023/10/31 05:20:41;;;;;;;5.53;2.15;;;;;;;-146.27;90.49;83334.47;5033089;28;20417;-73
2023/10/31 05:23:06;;;;;;;6.68;1.52;;;;;;;-146.27;90.56;83324.41;5024156;28;20032;-72
2023/10/31 05:25:32;;;;;;;3.47;1.30;;;;;;;-146.27;90.75;83376.66;5033225;28;20036;-72
2023/10/31 05:27:57;;;;;;;10.38;1.20;;;;;;;-146.27;90.77;83354.56;5031103;28;20028;-73
2023/10/31 05:30:23;;;;;;;8.48;1.30;;;;;;;-146.27;90.94;83372.63;5026088;28;20112;-72
2023/10/31 05:32:49;;;;;;;11.57;1.17;;;;;;;-146.27;90.68;83340.50;5031292;28;20049;-73
2023/10/31 05:35:15;;;;;;;4.65;1.25;;;;;;;-146.27;91.11;83386.69;5036558;28;20037;-72
2023/10/31 05:37:40;;;;;;;6.18;0.77;;;;;;;-146.27;91.35;83414.84;5027431;28;20025;-73
2023/10/31 05:40:06;;;;;;;7.35;0.82;;;;;;;-146.27;92.15;83414.84;5032053;28;20119;-73
2023/10/31 05:42:31;;;;;;;2.63;0.70;;;;;;;-146.27;91.16;83336.47;5032216;28;20124;-74
2023/10/31 05:44:57;;;;;;;7.25;0.95;;;;;;;-146.27;91.23;83374.66;5031157;28;20035;-72
2023/10/31 05:47:22;;;;;;;3.35;0.82;;;;;;;-146.27;91.28;83376.66;5031541;28;20039;-72
2023/10/31 05:49:48;;;;;;;5.13;0.65;;;;;;;-146.27;91.01;83348.53;5031535;28;20102;-72
2023/10/31 05:52:13;;;;;;;8.32;0.68;;;;;;;-146.27;91.33;83400.78;5029085;28;20088;-73
2023/10/31 05:54:39;;;;;;;3.10;0.73;;;;;;;-146.27;91.10;83370.63;5038326;28;20080;-72
2023/10/31 05:57:04;;;;;;;8.05;1.10;;;;;;;-146.27;91.15;83340.50;5034603;28;20075;-73
2023/10/31 05:59:29;;;;;;;3.83;1.33;;;;;;;-146.27;90.81;83362.59;5031796;28;20108;-73
2023/10/31 06:01:55;;;;;;;3.83;0.80;;;;;;;-146.27;90.85;83436.94;5033342;28;20194;-72
2023/10/31 06:04:20;;;;;;;3.95;0.90;;;;;;;-146.27;90.63;83336.47;5024603;28;20482;-73
2023/10/31 06:06:46;;;;;;;3.22;0.90;;;;;;;-146.27;90.25;83340.50;5030582;28;20129;-72
2023/10/31 06:09:11;;;;;;;3.00;0.73;;;;;;;-146.27;90.44;83298.28;5026736;28;20053;-72
2023/10/31 06:11:40;;;;;;;8.05;0.95;;;;;;;-146.27;90.61;83404.78;5030374;28;20029;-75
2023/10/31 06:14:06;;;;;;;5.05;0.82;;;;;;;-146.27;91.25;83382.69;5012686;28;20151;-75
2023/10/31 06:16:31;;;;;;;4.07;0.45;;;;;;;-146.27;90.81;83324.41;5024434;28;20045;-76
2023/10/31 06:18:56;;;;;;;4.25;0.90;;;;;;;-146.27;90.94;83372.63;5017485;28;20030;-76
2023/10/31 06:21:22;;;;;;;5.32;1.40;;;;;;;-146.27;90.56;83308.34;5029154;28;20029;-75
2023/10/31 06:23:47;;;;;;;6.68;0.80;;;;;;;-146.27;91.68;83408.81;5024450;28;20037;-75
2023/10/31 06:26:13;;;;;;;2.72;1.45;;;;;;;-146.27;91.07;83390.72;5023047;28;20034;-75
2023/10/31 06:28:39;;;;;;;5.10;1.00;;;;;;;-146.27;91.23;83428.91;5031469;28;20107;-75
2023/10/31 06:31:05;;;;;;;9.82;1.25;;;;;;;-146.27;90.80;83352.53;5024944;28;20021;-75
2023/10/31 06:33:30;;;;;;;6.10;1.00;;;;;;;-146.27;90.92;83416.84;5016295;28;20040;-75
2023/10/31 06:35:56;;;;;;;3.53;1.05;;;;;;;-146.27;90.83;83350.53;5028110;28;20021;-76
2023/10/31 06:38:21;;;;;;;3.00;1.30;;;;;;;-146.27;90.61;83352.53;5020528;28;20112;-76
2023/10/31 06:40:46;;;;;;;4.93;1.08;;;;;;;-146.27;90.72;83392.72;5024041;28;20061;-76
2023/10/31 06:43:12;;;;;;;2.80;0.95;;;;;;;-146.27;90.70;83354.56;5020408;28;20034;-75
2023/10/31 06:45:37;;;;;;;3.72;1.13;;;;;;;-146.27;90.70;83380.69;5039787;28;20025;-73
2023/10/31 06:48:03;;;;;;;3.40;1.10;;;;;;;-146.27;90.57;83356.56;5031467;28;20470;-75
2023/10/31 06:50:28;;;;;;;4.95;1.70;;;;;;;-146.27;90.34;83350.53;5032504;28;20037;-76
2023/10/31 06:52:54;;;;;;;4.18;1.42;;;;;;;-146.27;90.72;83332.44;5033298;28;20127;-76
2023/10/31 06:55:19;;;;;;;3.55;1.60;;;;;;;-146.27;90.80;83356.56;5022905;28;20079;-75
2023/10/31 06:57:44;;;;;;;4.95;1.65;;;;;;;-146.27;91.05;83346.53;5031198;28;20520;-76
2023/10/31 07:00:11;;;;;;;3.67;1.95;;;;;;;-146.27;90.93;83358.56;5028995;28;20362;-74
2023/10/31 07:02:36;;;;;;;4.32;1.48;;;;;;;-146.27;90.42;83328.44;5026412;28;20032;-75
2023/10/31 07:05:03;;;;;;;4.10;2.05;;;;;;;-146.27;90.51;83316.38;5025382;28;20143;-74
2023/10/31 07:07:29;;;;;;;10.70;2.00;;;;;;;-146.27;90.66;83332.44;5025248;28;20400;-76
2023/10/31 07:09:54;;;;;;;4.85;2.00;;;;;;;-146.27;90.69;83326.44;5023945;28;20031;-75
2023/10/31 07:12:19;;;;;;;12.73;3.05;;;;;;;-146.27;90.53;83352.53;5036349;28;20037;-75
2023/10/31 07:14:45;;;;;;;6.10;2.65;;;;;;;-146.27;91.02;83344.50;5025637;28;20021;-74
2023/10/31 07:17:10;;;;;;;8.20;2.88;;;;;;;-146.27;91.45;83344.50;5033336;28;20072;-75
2023/10/31 07:19:35;;;;;;;6.20;2.53;;;;;;;-146.27;91.08;83300.31;5027722;28;20105;-74
2023/10/31 07:22:02;;;;;;;8.05;2.72;;;;;;;-146.27;90.72;83296.28;5030168;28;20029;-73
2023/10/31 07:24:27;;;;;;;9.40;3.00;;;;;;;-146.27;91.31;83264.13;5036438;28;20477;-73
2023/10/31 07:26:53;;;;;;;6.32;2.80;;;;;;;-146.27;91.54;83344.50;5042338;28;20052;-75
2023/10/31 07:29:19;;;;;;;8.20;3.20;;;;;;;-146.27;91.04;83332.44;5025347;28;20092;-76
2023/10/31 07:31:44;;;;;;;12.23;2.80;;;;;;;-146.27;90.89;83286.25;5026617;28;20026;-76
2023/10/31 07:34:11;;;;;;;10.32;2.65;;;;;;;-146.27;91.29;83336.47;5027178;28;20593;-76
2023/10/31 07:36:36;;;;;;;9.10;2.45;;;;;;;-146.27;91.18;83296.28;5031726;28;20099;-75
2023/10/31 07:39:03;;;;;;;7.47;3.45;;;;;;;-146.27;91.60;83328.44;5027544;28;20108;-76
2023/10/31 07:41:29;;;;;;;10.93;2.83;;;;;;;-146.27;91.31;83336.47;5025522;28;20037;-77
2023/10/31 07:43:55;;;;;;;8.77;3.13;;;;;;;-146.27;91.02;83340.50;5025682;28;20021;-77
2023/10/31 07:46:20;;;;;;;9.15;3.70;;;;;;;-146.27;90.88;83290.25;5029094;28;20128;-75
2023/10/31 07:48:46;;;;;;;9.57;3.20;;;;;;;-146.27;91.16;83354.56;5031732;28;20053;-77
2023/10/31 07:51:11;;;;;;;9.43;3.20;;;;;;;-146.27;90.98;83328.44;5024682;28;20037;-76
2023/10/31 07:53:36;;;;;;;11.38;3.28;;;;;;;-146.27;91.04;83296.28;5028741;28;20037;-76
2023/10/31 07:56:02;;;;;;;13.30;3.58;;;;;;;-146.27;91.54;83300.31;5033642;28;20021;-76
2023/10/31 07:58:27;;;;;;;12.95;4.10;;;;;;;-146.27;91.02;83264.13;5028822;28;20113;-75
2023/10/31 08:00:53;;;;;;;16.80;4.03;;;;;;;-146.27;91.00;83286.25;5032800;28;20045;-75
2023/10/31 08:03:18;;;;;;;21.17;4.32;;;;;;;-146.27;90.95;83244.03;5031625;28;20036;-75
2023/10/31 08:05:43;;;;;;;11.40;3.75;;;;;;;-146.27;90.67;83262.13;5032561;28;20076;-75
2023/10/31 08:08:09;;;;;;;15.13;4.30;;;;;;;-146.27;90.28;83254.09;5041704;28;20029;-75
2023/10/31 08:10:34;;;;;;;11.75;4.25;;;;;;;-146.27;90.49;83268.16;5046993;28;20025;-75
2023/10/31 08:13:00;;;;;;;13.32;4.57;;;;;;;-146.27;90.61;83219.94;5045557;28;20028;-75
2023/10/31 08:15:25;;;;;;;11.88;5.15;;;;;;;-146.27;90.89;83252.09;5044410;28;20032;-75
2023/10/31 08:17:51;;;;;;;12.20;5.15;;;;;;;-146.27;90.83;83223.94;5030653;28;20386;-75
2023/10/31 08:20:16;;;;;;;12.73;5.75;;;;;;;-146.27;90.59;83199.84;5032650;28;20470;-75
2023/10/31 08:22:45;;;;;;;18.88;5.80;;;;;;;-146.27;90.61;83191.81;5029726;28;20087;-75
2023/10/31 08:25:10;;;;;;;12.45;5.95;;;;;;;-146.27;90.87;83185.78;5034070;28;20025;-75
2023/10/31 08:27:35;;;;;;;15.10;6.63;;;;;;;-146.27;91.60;83260.13;5045604;28;20079;-75
2023/10/31 08:30:02;;;;;;;22.23;7.03;;;;;;;-146.27;91.39;83181.75;5030917;28;20029;-75
2023/10/31 08:32:27;;;;;;;22.85;7.30;;;;;;;-146.27;90.91;83119.47;5025355;28;20057;-75
2023/10/31 08:34:54;;;;;;;21.15;7.72;;;;;;;-146.27;92.05;83223.94;5028145;28;20112;-75
2023/10/31 08:37:19;;;;;;;16.45;6.68;;;;;;;-146.27;91.71;83197.84;5030098;28;20088;-75
2023/10/31 08:39:44;;;;;;;26.65;8.25;;;;;;;-146.27;92.28;83155.63;5023853;28;20038;-75
2023/10/31 08:42:10;;;;;;;18.83;7.32;;;;;;;-146.27;91.37;83103.41;5012548;28;20036;-75
2023/10/31 08:44:37;;;;;;;21.27;6.80;;;;;;;-146.27;90.81;83135.53;5028032;28;20044;-75
2023/10/31 08:47:03;;;;;;;22.40;7.85;;;;;;;-146.27;90.94;83105.41;5030452;28;20026;-76
2023/10/31 08:49:29;;;;;;;21.15;6.80;;;;;;;-146.27;90.58;83097.38;5033201;28;20040;-75
2023/10/31 08:51:54;;;;;;;26.83;7.70;;;;;;;-146.27;90.45;83083.31;5027578;28;20879;-76
2023/10/31 08:54:20;;;;;;;16.73;6.07;;;;;;;-146.27;89.94;83063.22;5026069;28;20074;-75
2023/10/31 08:56:45;;;;;;;21.80;7.57;;;;;;;-146.27;89.89;83103.41;5031711;28;20568;-75
2023/10/31 08:59:10;;;;;;;18.25;7.03;;;;;;;-146.27;90.04;83057.19;5032409;28;20095;-74
2023/10/31 09:01:36;;;;;;;20.33;6.70;;;;;;;-146.27;89.83;83025.03;5027645;28;20036;-75
2023/10/31 09:04:01;;;;;;;16.52;5.85;;;;;;;-146.27;89.95;83033.09;5026568;28;20049;-74
2023/10/31 09:06:27;;;;;;;14.00;5.60;;;;;;;-146.27;89.88;83055.19;5023527;28;20037;-74
2023/10/31 09:08:53;;;;;;;17.88;5.57;;;;;;;-146.27;89.72;83031.06;5030271;28;20037;-76
2023/10/31 09:11:18;;;;;;;12.15;5.20;;;;;;;-146.27;90.25;83043.13;5029203;28;20095;-75
2023/10/31 09:13:44;;;;;;;16.38;6.00;;;;;;;-146.27;90.20;83019.03;5030572;28;20489;-75
2023/10/31 09:16:09;;;;;;;14.70;5.53;;;;;;;-146.27;90.31;83008.97;5027141;28;20049;-75
2023/10/31 09:18:35;;;;;;;20.42;5.63;;;;;;;-146.27;89.59;82946.69;5026824;28;20432;-76
2023/10/31 09:21:01;;;;;;;12.63;5.13;;;;;;;-146.27;89.52;82862.31;5025339;28;20113;-75
2023/10/31 09:23:27;;;;;;;15.25;5.55;;;;;;;-146.27;89.21;82880.41;5022059;28;20048;-74
2023/10/31 09:25:52;;;;;;;13.38;4.93;;;;;;;-146.27;88.59;82888.44;5031157;28;20037;-77
2023/10/31 09:28:17;;;;;;;16.17;5.18;;;;;;;-146.27;88.27;82806.06;5047240;28;20031;-78
2023/10/31 09:30:43;;;;;;;18.83;5.03;;;;;;;-146.27;87.78;82830.16;5019913;28;20385;-78
2023/10/31 09:33:10;;;;;;;12.38;4.43;;;;;;;-146.27;87.36;82830.16;5050453;28;20128;-77
2023/10/31 09:35:35;;;;;;;6.72;3.55;;;;;;;-146.27;87.61;82792.00;5035522;28;20401;-77
2023/10/31 09:38:00;;;;;;;13.63;3.40;;;;;;;-146.27;87.81;82721.69;5042943;28;20546;-74
2023/10/31 09:40:26;;;;;;;16.77;4.82;;;;;;;-146.27;86.70;82725.69;5045014;28;20056;-71
2023/10/31 09:42:51;;;;;;;9.30;2.97;;;;;;;-146.27;86.19;82689.53;5044749;28;20028;-70
2023/10/31 09:45:17;;;;;;;8.98;2.72;;;;;;;-146.27;84.72;82647.34;5029473;28;20025;-71
2023/10/31 09:47:43;;;;;;;7.63;2.55;;;;;;;-146.27;83.48;82673.47;5030095;28;20152;-71
2023/10/31 09:50:09;;;;;;;5.57;2.20;;;;;;;-146.27;83.24;82643.31;5039036;28;20417;-71
2023/10/31 09:52:38;;;;;;;12.65;2.45;;;;;;;-146.27;83.04;82605.16;5021179;28;20021;-71
2023/10/31 09:55:05;;;;;;;8.20;2.13;;;;;;;-146.27;82.12;82564.97;5026475;28;20378;-72
2023/10/31 09:57:31;;;;;;;14.25;2.75;;;;;;;-146.27;81.68;82460.53;5040749;28;20051;-72
2023/10/31 09:59:56;;;;;;;8.05;2.17;;;;;;;-146.27;80.51;82458.50;5031186;28;20025;-72
2023/10/31 10:02:21;;;;;;;12.25;2.25;;;;;;;-146.27;81.68;82368.13;5030909;28;20036;-72
2023/10/31 10:04:47;;;;;;;9.32;2.53;;;;;;;-146.27;79.34;82368.13;5028007;28;20052;-72
2023/10/31 10:07:17;;;;;;;6.35;1.73;;;;;;;-146.27;79.24;82291.78;5028928;28;20065;-71
2023/10/31 10:09:43;;;;;;;6.28;1.38;;;;;;;-146.27;77.73;82319.91;5032542;28;20125;-72
2023/10/31 10:12:12;;;;;;;9.80;2.38;;;;;;;-146.27;78.76;82255.63;5032136;28;20037;-71
2023/10/31 10:14:40;;;;;;;9.27;1.63;;;;;;;-146.27;77.50;82279.72;5027455;28;20024;-72
2023/10/31 10:17:23;;;;;;;6.03;1.70;;;;;;;-146.27;75.78;82263.66;5022845;28;20052;-72
2023/10/31 10:20:07;;;;;;;8.65;1.85;;;;;;;-146.27;75.72;82311.88;5030580;28;20724;-71
2023/10/31 10:22:36;;;;;;;7.45;2.42;;;;;;;-146.27;77.24;82422.34;5021186;28;20473;-72
2023/10/31 10:25:03;;;;;;;7.68;1.80;;;;;;;-146.27;77.97;82508.72;5035501;28;20354;-70
2023/10/31 10:27:29;;;;;;;13.77;2.10;;;;;;;-146.27;79.14;82542.88;5032650;28;20036;-72
2023/10/31 10:29:54;;;;;;;11.38;2.50;;;;;;;-146.27;80.70;82655.38;5024209;28;20029;-71
2023/10/31 10:32:19;;;;;;;7.43;2.45;;;;;;;-146.27;80.68;82629.28;5025726;28;20033;-72
2023/10/31 10:34:46;;;;;;;10.77;3.50;;;;;;;-146.27;81.69;82687.53;5029597;28;20021;-71
2023/10/31 10:37:12;;;;;;;18.52;4.50;;;;;;;-146.27;82.35;82709.63;5028983;28;20044;-72
2023/10/31 10:39:40;;;;;;;14.45;3.42;;;;;;;-146.27;83.06;82757.84;5026532;28;20036;-73
2023/10/31 10:42:09;;;;;;;11.15;3.45;;;;;;;-146.27;83.00;82649.34;5025778;28;20104;-72
2023/10/31 10:44:36;;;;;;;12.27;3.65;;;;;;;-146.27;82.98;82699.59;5031905;28;20078;-72
2023/10/31 10:47:04;;;;;;;15.02;3.92;;;;;;;-146.27;83.99;82812.09;5030200;28;20057;-71
2023/10/31 10:49:33;;;;;;;16.35;3.80;;;;;;;-146.27;84.64;82800.03;5028031;28;20029;-72
2023/10/31 10:52:06;;;;;;;14.52;4.03;;;;;;;-146.27;84.04;82707.63;5029109;28;20393;-71
2023/10/31 10:54:45;;;;;;;13.23;3.97;;;;;;;-146.27;83.78;82725.69;5031919;28;20182;-72
2023/10/31 10:57:35;;;;;;;13.18;4.53;;;;;;;-146.27;84.76;82798.03;5031807;28;20029;-70
2023/10/31 11:00:04;;;;;;;12.73;3.85;;;;;;;-146.27;84.07;82709.63;5026903;28;20035;-71
2023/10/31 11:02:31;;;;;;;11.13;2.95;;;;;;;-146.27;83.18;82679.50;5024199;28;20113;-71
2023/10/31 11:04:58;;;;;;;14.27;3.00;;;;;;;-146.27;85.43;82757.84;5039429;28;20461;-74
2023/10/31 11:07:26;;;;;;;10.20;3.08;;;;;;;-146.27;86.62;82711.63;5033165;28;20068;-75